sensor_id;sensor_type;location;lat;lon;timestamp;P1;durP1;ratioP1;P2;durP2;ratioP2
22557;SDS011;11445;53.816;8.902;2023-08-20T00:01:27;16.65;;;6.28;;
22557;SDS011;11445;53.816;8.902;2023-08-20T00:03:54;14.57;;;6.72;;
22557;SDS011;11445;53.816;8.902;2023-08-20T00:06:22;16.70;;;6.80;;
22557;SDS011;11445;53.816;8.902;2023-08-20T00:08:49;16.90;;;6.63;;
22557;SDS011;11445;53.816;8.902;2023-08-20T00:11:17;16.73;;;6.97;;
22557;SDS011;11445;53.816;8.902;2023-08-20T00:13:44;16.30;;;6.97;;
22557;SDS011;11445;53.816;8.902;2023-08-20T00:16:10;14.98;;;6.65;;
22557;SDS011;11445;53.816;8.902;2023-08-20T00:18:39;12.98;;;6.00;;
22557;SDS011;11445;53.816;8.902;2023-08-20T00:21:07;14.70;;;6.35;;
22557;SDS011;11445;53.816;8.902;2023-08-20T00:23:34;14.25;;;6.50;;
22557;SDS011;11445;53.816;8.902;2023-08-20T00:26:02;15.02;;;6.45;;
22557;SDS011;11445;53.816;8.902;2023-08-20T00:28:29;13.35;;;6.45;;
22557;SDS011;11445;53.816;8.902;2023-08-20T00:30:58;19.23;;;6.63;;
22557;SDS011;11445;53.816;8.902;2023-08-20T00:33:25;13.85;;;6.53;;
22557;SDS011;11445;53.816;8.902;2023-08-20T00:35:53;16.05;;;6.50;;
22557;SDS011;11445;53.816;8.902;2023-08-20T00:38:20;15.73;;;5.72;;
22557;SDS011;11445;53.816;8.902;2023-08-20T00:40:46;18.38;;;7.13;;
22557;SDS011;11445;53.816;8.902;2023-08-20T00:43:13;13.85;;;6.07;;
22557;SDS011;11445;53.816;8.902;2023-08-20T00:45:40;10.90;;;5.82;;
22557;SDS011;11445;53.816;8.902;2023-08-20T00:48:08;16.17;;;6.70;;
22557;SDS011;11445;53.816;8.902;2023-08-20T00:50:36;15.13;;;6.70;;
22557;SDS011;11445;53.816;8.902;2023-08-20T00:53:05;13.55;;;6.78;;
22557;SDS011;11445;53.816;8.902;2023-08-20T00:55:33;11.30;;;6.95;;
22557;SDS011;11445;53.816;8.902;2023-08-20T00:58:01;14.88;;;7.40;;
22557;SDS011;11445;53.816;8.902;2023-08-20T01:00:28;13.35;;;7.35;;
22557;SDS011;11445;53.816;8.902;2023-08-20T01:02:55;20.33;;;6.88;;
22557;SDS011;11445;53.816;8.902;2023-08-20T01:05:22;12.77;;;7.00;;
22557;SDS011;11445;53.816;8.902;2023-08-20T01:08:02;6.88;;;5.38;;
22557;SDS011;11445;53.816;8.902;2023-08-20T01:10:39;9.75;;;5.85;;
22557;SDS011;11445;53.816;8.902;2023-08-20T01:13:16;6.72;;;4.85;;
22557;SDS011;11445;53.816;8.902;2023-08-20T01:15:44;6.88;;;5.25;;
22557;SDS011;11445;53.816;8.902;2023-08-20T01:18:10;6.28;;;4.88;;
22557;SDS011;11445;53.816;8.902;2023-08-20T01:20:39;8.70;;;4.70;;
22557;SDS011;11445;53.816;8.902;2023-08-20T01:23:22;5.97;;;4.78;;
22557;SDS011;11445;53.816;8.902;2023-08-20T01:26:07;4.85;;;4.35;;
22557;SDS011;11445;53.816;8.902;2023-08-20T01:28:49;5.10;;;4.57;;
22557;SDS011;11445;53.816;8.902;2023-08-20T01:31:17;10.48;;;5.18;;
22557;SDS011;11445;53.816;8.902;2023-08-20T01:33:46;5.32;;;4.40;;
22557;SDS011;11445;53.816;8.902;2023-08-20T01:36:12;5.07;;;4.32;;
22557;SDS011;11445;53.816;8.902;2023-08-20T01:38:39;5.30;;;4.22;;
22557;SDS011;11445;53.816;8.902;2023-08-20T01:41:06;7.20;;;3.90;;
22557;SDS011;11445;53.816;8.902;2023-08-20T01:43:33;5.28;;;4.25;;
22557;SDS011;11445;53.816;8.902;2023-08-20T01:46:01;4.43;;;4.07;;
22557;SDS011;11445;53.816;8.902;2023-08-20T01:48:28;9.18;;;4.85;;
22557;SDS011;11445;53.816;8.902;2023-08-20T01:50:55;7.40;;;4.60;;
22557;SDS011;11445;53.816;8.902;2023-08-20T01:53:21;7.63;;;4.88;;
22557;SDS011;11445;53.816;8.902;2023-08-20T01:55:48;5.07;;;4.60;;
22557;SDS011;11445;53.816;8.902;2023-08-20T01:58:15;7.53;;;4.32;;
22557;SDS011;11445;53.816;8.902;2023-08-20T02:00:42;5.00;;;4.50;;
22557;SDS011;11445;53.816;8.902;2023-08-20T02:03:12;4.57;;;4.18;;
22557;SDS011;11445;53.816;8.902;2023-08-20T02:05:39;11.18;;;4.35;;
22557;SDS011;11445;53.816;8.902;2023-08-20T02:08:05;6.93;;;4.15;;
22557;SDS011;11445;53.816;8.902;2023-08-20T02:10:32;7.53;;;4.65;;
22557;SDS011;11445;53.816;8.902;2023-08-20T02:12:59;26.38;;;4.95;;
22557;SDS011;11445;53.816;8.902;2023-08-20T02:15:26;16.63;;;5.10;;
22557;SDS011;11445;53.816;8.902;2023-08-20T02:17:52;29.23;;;5.25;;
22557;SDS011;11445;53.816;8.902;2023-08-20T02:20:20;27.98;;;5.68;;
22557;SDS011;11445;53.816;8.902;2023-08-20T02:22:47;14.75;;;5.68;;
22557;SDS011;11445;53.816;8.902;2023-08-20T02:25:14;16.00;;;5.90;;
22557;SDS011;11445;53.816;8.902;2023-08-20T02:27:41;17.35;;;5.65;;
22557;SDS011;11445;53.816;8.902;2023-08-20T02:30:08;19.92;;;6.50;;
22557;SDS011;11445;53.816;8.902;2023-08-20T02:32:38;5.70;;;5.20;;
22557;SDS011;11445;53.816;8.902;2023-08-20T02:35:05;6.20;;;5.57;;
22557;SDS011;11445;53.816;8.902;2023-08-20T02:37:34;6.50;;;5.35;;
22557;SDS011;11445;53.816;8.902;2023-08-20T02:40:01;8.10;;;6.40;;
22557;SDS011;11445;53.816;8.902;2023-08-20T02:42:29;20.95;;;6.57;;
22557;SDS011;11445;53.816;8.902;2023-08-20T02:44:56;13.82;;;6.65;;
22557;SDS011;11445;53.816;8.902;2023-08-20T02:47:23;22.83;;;7.65;;
22557;SDS011;11445;53.816;8.902;2023-08-20T02:49:50;14.98;;;7.30;;
22557;SDS011;11445;53.816;8.902;2023-08-20T02:52:17;9.77;;;7.38;;
22557;SDS011;11445;53.816;8.902;2023-08-20T02:54:45;9.95;;;7.45;;
22557;SDS011;11445;53.816;8.902;2023-08-20T02:57:12;10.60;;;7.50;;
22557;SDS011;11445;53.816;8.902;2023-08-20T02:59:39;13.90;;;6.85;;
22557;SDS011;11445;53.816;8.902;2023-08-20T03:02:05;9.38;;;7.05;;
22557;SDS011;11445;53.816;8.902;2023-08-20T03:04:32;9.02;;;6.53;;
22557;SDS011;11445;53.816;8.902;2023-08-20T03:07:00;10.98;;;6.70;;
22557;SDS011;11445;53.816;8.902;2023-08-20T03:09:26;11.50;;;7.45;;
22557;SDS011;11445;53.816;8.902;2023-08-20T03:11:54;28.58;;;7.95;;
22557;SDS011;11445;53.816;8.902;2023-08-20T03:14:21;16.35;;;8.40;;
22557;SDS011;11445;53.816;8.902;2023-08-20T03:16:48;37.10;;;8.45;;
22557;SDS011;11445;53.816;8.902;2023-08-20T03:19:15;13.75;;;7.82;;
22557;SDS011;11445;53.816;8.902;2023-08-20T03:21:42;11.85;;;7.72;;
22557;SDS011;11445;53.816;8.902;2023-08-20T03:24:09;24.80;;;6.93;;
22557;SDS011;11445;53.816;8.902;2023-08-20T03:26:36;42.25;;;7.07;;
22557;SDS011;11445;53.816;8.902;2023-08-20T03:29:04;33.30;;;5.95;;
22557;SDS011;11445;53.816;8.902;2023-08-20T03:31:31;27.77;;;5.93;;
22557;SDS011;11445;53.816;8.902;2023-08-20T03:33:58;25.73;;;6.35;;
22557;SDS011;11445;53.816;8.902;2023-08-20T03:36:25;30.95;;;6.30;;
22557;SDS011;11445;53.816;8.902;2023-08-20T03:38:51;38.90;;;5.75;;
22557;SDS011;11445;53.816;8.902;2023-08-20T03:41:18;29.95;;;5.80;;
22557;SDS011;11445;53.816;8.902;2023-08-20T03:43:45;40.97;;;5.95;;
22557;SDS011;11445;53.816;8.902;2023-08-20T03:46:14;25.77;;;5.57;;
22557;SDS011;11445;53.816;8.902;2023-08-20T03:48:41;23.63;;;6.30;;
22557;SDS011;11445;53.816;8.902;2023-08-20T03:51:08;13.38;;;6.93;;
22557;SDS011;11445;53.816;8.902;2023-08-20T03:53:35;15.38;;;6.07;;
22557;SDS011;11445;53.816;8.902;2023-08-20T03:56:02;12.68;;;5.95;;
22557;SDS011;11445;53.816;8.902;2023-08-20T03:58:28;14.93;;;5.95;;
22557;SDS011;11445;53.816;8.902;2023-08-20T04:00:55;10.82;;;5.65;;
22557;SDS011;11445;53.816;8.902;2023-08-20T04:03:23;13.63;;;5.30;;
22557;SDS011;11445;53.816;8.902;2023-08-20T04:05:50;8.43;;;5.30;;
22557;SDS011;11445;53.816;8.902;2023-08-20T04:08:17;14.65;;;4.68;;
22557;SDS011;11445;53.816;8.902;2023-08-20T04:10:44;16.95;;;5.63;;
22557;SDS011;11445;53.816;8.902;2023-08-20T04:13:11;13.30;;;5.05;;
22557;SDS011;11445;53.816;8.902;2023-08-20T04:15:39;15.55;;;5.50;;
22557;SDS011;11445;53.816;8.902;2023-08-20T04:18:06;6.45;;;4.97;;
22557;SDS011;11445;53.816;8.902;2023-08-20T04:20:34;11.25;;;5.47;;
22557;SDS011;11445;53.816;8.902;2023-08-20T04:23:02;9.75;;;5.50;;
22557;SDS011;11445;53.816;8.902;2023-08-20T04:25:29;10.52;;;5.63;;
22557;SDS011;11445;53.816;8.902;2023-08-20T04:27:56;13.15;;;5.60;;
22557;SDS011;11445;53.816;8.902;2023-08-20T04:30:22;15.93;;;5.50;;
22557;SDS011;11445;53.816;8.902;2023-08-20T04:32:49;9.40;;;5.10;;
22557;SDS011;11445;53.816;8.902;2023-08-20T04:35:16;8.55;;;5.47;;
22557;SDS011;11445;53.816;8.902;2023-08-20T04:37:44;12.63;;;5.65;;
22557;SDS011;11445;53.816;8.902;2023-08-20T04:40:11;7.20;;;6.07;;
22557;SDS011;11445;53.816;8.902;2023-08-20T04:42:38;6.75;;;6.07;;
22557;SDS011;11445;53.816;8.902;2023-08-20T04:45:05;9.40;;;6.28;;
22557;SDS011;11445;53.816;8.902;2023-08-20T04:47:33;13.65;;;5.53;;
22557;SDS011;11445;53.816;8.902;2023-08-20T04:50:00;8.15;;;6.00;;
22557;SDS011;11445;53.816;8.902;2023-08-20T04:52:27;11.35;;;5.95;;
22557;SDS011;11445;53.816;8.902;2023-08-20T04:54:55;16.30;;;5.90;;
22557;SDS011;11445;53.816;8.902;2023-08-20T04:57:22;13.73;;;5.80;;
22557;SDS011;11445;53.816;8.902;2023-08-20T04:59:49;6.50;;;5.07;;
22557;SDS011;11445;53.816;8.902;2023-08-20T05:02:16;6.32;;;5.72;;
22557;SDS011;11445;53.816;8.902;2023-08-20T05:04:43;6.03;;;5.43;;
22557;SDS011;11445;53.816;8.902;2023-08-20T05:07:10;6.78;;;5.78;;
22557;SDS011;11445;53.816;8.902;2023-08-20T05:09:37;12.27;;;5.68;;
22557;SDS011;11445;53.816;8.902;2023-08-20T05:12:05;5.60;;;5.00;;
22557;SDS011;11445;53.816;8.902;2023-08-20T05:14:32;8.90;;;5.50;;
22557;SDS011;11445;53.816;8.902;2023-08-20T05:16:59;6.22;;;5.63;;
22557;SDS011;11445;53.816;8.902;2023-08-20T05:19:26;5.72;;;5.15;;
22557;SDS011;11445;53.816;8.902;2023-08-20T05:21:53;9.90;;;5.13;;
22557;SDS011;11445;53.816;8.902;2023-08-20T05:24:23;6.90;;;4.85;;
22557;SDS011;11445;53.816;8.902;2023-08-20T05:27:03;6.07;;;5.18;;
22557;SDS011;11445;53.816;8.902;2023-08-20T05:29:32;6.55;;;5.80;;
22557;SDS011;11445;53.816;8.902;2023-08-20T05:31:59;8.30;;;5.97;;
22557;SDS011;11445;53.816;8.902;2023-08-20T05:34:26;6.45;;;5.38;;
22557;SDS011;11445;53.816;8.902;2023-08-20T05:36:52;7.28;;;6.05;;
22557;SDS011;11445;53.816;8.902;2023-08-20T05:39:19;7.40;;;6.20;;
22557;SDS011;11445;53.816;8.902;2023-08-20T05:41:46;7.40;;;6.47;;
22557;SDS011;11445;53.816;8.902;2023-08-20T05:44:14;7.65;;;6.53;;
22557;SDS011;11445;53.816;8.902;2023-08-20T05:46:41;6.95;;;5.85;;
22557;SDS011;11445;53.816;8.902;2023-08-20T05:49:09;6.93;;;6.22;;
22557;SDS011;11445;53.816;8.902;2023-08-20T05:51:35;9.65;;;6.63;;
22557;SDS011;11445;53.816;8.902;2023-08-20T05:54:02;9.75;;;6.88;;
22557;SDS011;11445;53.816;8.902;2023-08-20T05:56:29;13.13;;;7.20;;
22557;SDS011;11445;53.816;8.902;2023-08-20T05:58:56;7.30;;;6.57;;
22557;SDS011;11445;53.816;8.902;2023-08-20T06:01:24;11.35;;;7.00;;
22557;SDS011;11445;53.816;8.902;2023-08-20T06:03:51;7.95;;;7.00;;
22557;SDS011;11445;53.816;8.902;2023-08-20T06:06:18;10.93;;;6.85;;
22557;SDS011;11445;53.816;8.902;2023-08-20T06:08:45;13.45;;;7.22;;
22557;SDS011;11445;53.816;8.902;2023-08-20T06:11:11;8.32;;;6.53;;
22557;SDS011;11445;53.816;8.902;2023-08-20T06:13:38;12.30;;;7.20;;
22557;SDS011;11445;53.816;8.902;2023-08-20T06:16:06;11.80;;;7.00;;
22557;SDS011;11445;53.816;8.902;2023-08-20T06:18:35;9.60;;;7.13;;
22557;SDS011;11445;53.816;8.902;2023-08-20T06:21:02;14.55;;;7.65;;
22557;SDS011;11445;53.816;8.902;2023-08-20T06:23:28;14.70;;;7.10;;
22557;SDS011;11445;53.816;8.902;2023-08-20T06:25:55;15.38;;;7.57;;
22557;SDS011;11445;53.816;8.902;2023-08-20T06:28:22;10.02;;;7.13;;
22557;SDS011;11445;53.816;8.902;2023-08-20T06:30:49;15.27;;;6.70;;
22557;SDS011;11445;53.816;8.902;2023-08-20T06:33:16;13.30;;;7.15;;
22557;SDS011;11445;53.816;8.902;2023-08-20T06:35:44;13.52;;;6.82;;
22557;SDS011;11445;53.816;8.902;2023-08-20T06:38:11;9.00;;;6.45;;
22557;SDS011;11445;53.816;8.902;2023-08-20T06:40:38;11.48;;;6.28;;
22557;SDS011;11445;53.816;8.902;2023-08-20T06:43:05;8.15;;;5.68;;
22557;SDS011;11445;53.816;8.902;2023-08-20T06:45:31;12.18;;;6.70;;
22557;SDS011;11445;53.816;8.902;2023-08-20T06:47:58;13.15;;;6.40;;
22557;SDS011;11445;53.816;8.902;2023-08-20T06:50:25;16.98;;;6.45;;
22557;SDS011;11445;53.816;8.902;2023-08-20T06:52:53;17.67;;;6.18;;
22557;SDS011;11445;53.816;8.902;2023-08-20T06:55:20;11.18;;;6.20;;
22557;SDS011;11445;53.816;8.902;2023-08-20T06:57:47;13.15;;;6.38;;
22557;SDS011;11445;53.816;8.902;2023-08-20T07:00:13;9.95;;;5.97;;
22557;SDS011;11445;53.816;8.902;2023-08-20T07:02:41;11.68;;;6.30;;
22557;SDS011;11445;53.816;8.902;2023-08-20T07:05:08;13.32;;;6.00;;
22557;SDS011;11445;53.816;8.902;2023-08-20T07:07:35;15.02;;;5.53;;
22557;SDS011;11445;53.816;8.902;2023-08-20T07:10:04;9.15;;;5.60;;
22557;SDS011;11445;53.816;8.902;2023-08-20T07:12:31;11.80;;;5.50;;
22557;SDS011;11445;53.816;8.902;2023-08-20T07:14:58;15.20;;;5.50;;
22557;SDS011;11445;53.816;8.902;2023-08-20T07:17:25;11.60;;;5.47;;
22557;SDS011;11445;53.816;8.902;2023-08-20T07:19:51;11.60;;;4.88;;
22557;SDS011;11445;53.816;8.902;2023-08-20T07:22:18;15.75;;;5.57;;
22557;SDS011;11445;53.816;8.902;2023-08-20T07:24:45;8.95;;;5.30;;
22557;SDS011;11445;53.816;8.902;2023-08-20T07:27:13;15.40;;;5.53;;
22557;SDS011;11445;53.816;8.902;2023-08-20T07:29:40;13.93;;;5.78;;
22557;SDS011;11445;53.816;8.902;2023-08-20T07:32:07;8.40;;;4.65;;
22557;SDS011;11445;53.816;8.902;2023-08-20T07:34:35;15.13;;;5.28;;
22557;SDS011;11445;53.816;8.902;2023-08-20T07:37:02;13.23;;;5.10;;
22557;SDS011;11445;53.816;8.902;2023-08-20T07:39:30;14.65;;;5.38;;
22557;SDS011;11445;53.816;8.902;2023-08-20T07:41:56;12.13;;;4.78;;
22557;SDS011;11445;53.816;8.902;2023-08-20T07:44:24;13.02;;;4.80;;
22557;SDS011;11445;53.816;8.902;2023-08-20T07:46:53;11.15;;;4.22;;
22557;SDS011;11445;53.816;8.902;2023-08-20T07:49:19;8.77;;;4.18;;
22557;SDS011;11445;53.816;8.902;2023-08-20T07:51:46;13.85;;;4.63;;
22557;SDS011;11445;53.816;8.902;2023-08-20T07:54:13;10.75;;;3.88;;
22557;SDS011;11445;53.816;8.902;2023-08-20T07:56:40;10.57;;;4.10;;
22557;SDS011;11445;53.816;8.902;2023-08-20T07:59:07;10.82;;;4.05;;
22557;SDS011;11445;53.816;8.902;2023-08-20T08:01:35;7.68;;;3.42;;
22557;SDS011;11445;53.816;8.902;2023-08-20T08:04:02;9.95;;;4.15;;
22557;SDS011;11445;53.816;8.902;2023-08-20T08:06:29;10.85;;;3.92;;
22557;SDS011;11445;53.816;8.902;2023-08-20T08:08:56;11.65;;;3.65;;
22557;SDS011;11445;53.816;8.902;2023-08-20T08:11:22;10.43;;;3.92;;
22557;SDS011;11445;53.816;8.902;2023-08-20T08:13:50;11.38;;;3.47;;
22557;SDS011;11445;53.816;8.902;2023-08-20T08:16:16;10.07;;;4.20;;
22557;SDS011;11445;53.816;8.902;2023-08-20T08:18:45;11.38;;;4.60;;
22557;SDS011;11445;53.816;8.902;2023-08-20T08:21:11;8.32;;;4.10;;
22557;SDS011;11445;53.816;8.902;2023-08-20T08:23:39;9.05;;;3.58;;
22557;SDS011;11445;53.816;8.902;2023-08-20T08:26:05;8.63;;;3.65;;
22557;SDS011;11445;53.816;8.902;2023-08-20T08:28:32;8.88;;;3.40;;
22557;SDS011;11445;53.816;8.902;2023-08-20T08:30:59;6.47;;;3.15;;
22557;SDS011;11445;53.816;8.902;2023-08-20T08:33:26;9.65;;;3.30;;
22557;SDS011;11445;53.816;8.902;2023-08-20T08:35:54;10.00;;;3.90;;
22557;SDS011;11445;53.816;8.902;2023-08-20T08:38:21;13.43;;;4.00;;
22557;SDS011;11445;53.816;8.902;2023-08-20T08:40:48;9.60;;;3.80;;
22557;SDS011;11445;53.816;8.902;2023-08-20T08:43:16;8.40;;;2.97;;
22557;SDS011;11445;53.816;8.902;2023-08-20T08:45:44;7.55;;;2.67;;
22557;SDS011;11445;53.816;8.902;2023-08-20T08:48:13;13.85;;;3.00;;
22557;SDS011;11445;53.816;8.902;2023-08-20T08:50:40;10.75;;;2.95;;
22557;SDS011;11445;53.816;8.902;2023-08-20T08:53:09;10.77;;;3.15;;
22557;SDS011;11445;53.816;8.902;2023-08-20T08:55:36;14.30;;;3.17;;
22557;SDS011;11445;53.816;8.902;2023-08-20T08:58:03;8.18;;;2.90;;
22557;SDS011;11445;53.816;8.902;2023-08-20T09:00:30;9.65;;;2.88;;
22557;SDS011;11445;53.816;8.902;2023-08-20T09:02:57;7.65;;;3.00;;
22557;SDS011;11445;53.816;8.902;2023-08-20T09:05:24;10.38;;;2.92;;
22557;SDS011;11445;53.816;8.902;2023-08-20T09:07:54;12.38;;;3.13;;
22557;SDS011;11445;53.816;8.902;2023-08-20T09:10:26;6.63;;;2.10;;
22557;SDS011;11445;53.816;8.902;2023-08-20T09:12:54;7.72;;;2.22;;
22557;SDS011;11445;53.816;8.902;2023-08-20T09:15:21;12.07;;;2.58;;
22557;SDS011;11445;53.816;8.902;2023-08-20T09:17:56;12.02;;;2.97;;
22557;SDS011;11445;53.816;8.902;2023-08-20T09:20:33;9.20;;;2.67;;
22557;SDS011;11445;53.816;8.902;2023-08-20T09:23:00;9.55;;;2.70;;
22557;SDS011;11445;53.816;8.902;2023-08-20T09:25:28;12.35;;;2.25;;
22557;SDS011;11445;53.816;8.902;2023-08-20T09:27:55;6.95;;;1.83;;
22557;SDS011;11445;53.816;8.902;2023-08-20T09:30:22;8.70;;;2.28;;
22557;SDS011;11445;53.816;8.902;2023-08-20T09:33:02;8.85;;;1.70;;
22557;SDS011;11445;53.816;8.902;2023-08-20T09:35:30;9.32;;;2.42;;
22557;SDS011;11445;53.816;8.902;2023-08-20T09:37:58;8.32;;;2.22;;
22557;SDS011;11445;53.816;8.902;2023-08-20T09:40:26;11.45;;;2.90;;
22557;SDS011;11445;53.816;8.902;2023-08-20T09:42:55;10.27;;;2.45;;
22557;SDS011;11445;53.816;8.902;2023-08-20T09:45:22;7.47;;;2.35;;
22557;SDS011;11445;53.816;8.902;2023-08-20T09:47:51;8.52;;;2.20;;
22557;SDS011;11445;53.816;8.902;2023-08-20T09:50:21;5.90;;;2.33;;
22557;SDS011;11445;53.816;8.902;2023-08-20T09:52:52;7.82;;;1.80;;
22557;SDS011;11445;53.816;8.902;2023-08-20T09:55:23;9.13;;;2.47;;
22557;SDS011;11445;53.816;8.902;2023-08-20T09:57:56;5.97;;;1.73;;
22557;SDS011;11445;53.816;8.902;2023-08-20T10:00:25;10.75;;;2.35;;
22557;SDS011;11445;53.816;8.902;2023-08-20T10:02:53;7.47;;;1.52;;
22557;SDS011;11445;53.816;8.902;2023-08-20T10:05:20;6.45;;;1.90;;
22557;SDS011;11445;53.816;8.902;2023-08-20T10:07:49;8.60;;;1.92;;
22557;SDS011;11445;53.816;8.902;2023-08-20T10:10:17;7.22;;;1.83;;
22557;SDS011;11445;53.816;8.902;2023-08-20T10:12:46;9.82;;;2.17;;
22557;SDS011;11445;53.816;8.902;2023-08-20T10:15:13;8.30;;;1.80;;
22557;SDS011;11445;53.816;8.902;2023-08-20T10:17:41;7.32;;;1.33;;
22557;SDS011;11445;53.816;8.902;2023-08-20T10:20:11;8.23;;;1.55;;
22557;SDS011;11445;53.816;8.902;2023-08-20T10:22:40;4.50;;;1.42;;
22557;SDS011;11445;53.816;8.902;2023-08-20T10:25:09;6.60;;;1.63;;
22557;SDS011;11445;53.816;8.902;2023-08-20T10:27:37;6.20;;;1.40;;
22557;SDS011;11445;53.816;8.902;2023-08-20T10:30:10;12.50;;;2.15;;
22557;SDS011;11445;53.816;8.902;2023-08-20T10:32:46;7.20;;;1.63;;
22557;SDS011;11445;53.816;8.902;2023-08-20T10:35:15;8.23;;;1.52;;
22557;SDS011;11445;53.816;8.902;2023-08-20T10:40:46;7.57;;;1.38;;
22557;SDS011;11445;53.816;8.902;2023-08-20T10:43:26;6.68;;;1.10;;
22557;SDS011;11445;53.816;8.902;2023-08-20T10:46:14;9.80;;;1.65;;
22557;SDS011;11445;53.816;8.902;2023-08-20T10:48:43;7.82;;;1.70;;
22557;SDS011;11445;53.816;8.902;2023-08-20T10:51:14;9.93;;;1.42;;
22557;SDS011;11445;53.816;8.902;2023-08-20T10:53:43;5.22;;;1.63;;
22557;SDS011;11445;53.816;8.902;2023-08-20T10:56:15;7.05;;;1.30;;
22557;SDS011;11445;53.816;8.902;2023-08-20T10:58:43;6.10;;;1.70;;
22557;SDS011;11445;53.816;8.902;2023-08-20T11:01:13;3.88;;;1.27;;
22557;SDS011;11445;53.816;8.902;2023-08-20T11:03:45;9.63;;;1.40;;
22557;SDS011;11445;53.816;8.902;2023-08-20T11:06:13;6.78;;;1.45;;
22557;SDS011;11445;53.816;8.902;2023-08-20T11:08:41;5.25;;;1.38;;
22557;SDS011;11445;53.816;8.902;2023-08-20T11:11:10;8.50;;;1.23;;
22557;SDS011;11445;53.816;8.902;2023-08-20T11:13:37;10.48;;;1.67;;
22557;SDS011;11445;53.816;8.902;2023-08-20T11:16:05;11.38;;;1.60;;
22557;SDS011;11445;53.816;8.902;2023-08-20T11:18:34;15.77;;;1.60;;
22557;SDS011;11445;53.816;8.902;2023-08-20T11:21:01;5.38;;;1.52;;
22557;SDS011;11445;53.816;8.902;2023-08-20T11:23:29;3.90;;;1.10;;
22557;SDS011;11445;53.816;8.902;2023-08-20T11:25:56;6.22;;;1.30;;
22557;SDS011;11445;53.816;8.902;2023-08-20T11:28:24;6.70;;;1.60;;
22557;SDS011;11445;53.816;8.902;2023-08-20T11:30:52;6.25;;;1.23;;
22557;SDS011;11445;53.816;8.902;2023-08-20T11:33:20;5.18;;;1.50;;
22557;SDS011;11445;53.816;8.902;2023-08-20T11:35:49;6.28;;;1.60;;
22557;SDS011;11445;53.816;8.902;2023-08-20T11:38:16;5.65;;;1.20;;
22557;SDS011;11445;53.816;8.902;2023-08-20T11:40:43;7.38;;;1.30;;
22557;SDS011;11445;53.816;8.902;2023-08-20T11:43:09;4.20;;;1.25;;
22557;SDS011;11445;53.816;8.902;2023-08-20T11:45:44;2.90;;;1.17;;
22557;SDS011;11445;53.816;8.902;2023-08-20T11:48:14;4.18;;;1.63;;
22557;SDS011;11445;53.816;8.902;2023-08-20T11:50:41;8.43;;;1.70;;
22557;SDS011;11445;53.816;8.902;2023-08-20T11:53:10;8.95;;;2.05;;
22557;SDS011;11445;53.816;8.902;2023-08-20T11:55:38;6.65;;;1.80;;
22557;SDS011;11445;53.816;8.902;2023-08-20T11:58:06;5.78;;;1.02;;
22557;SDS011;11445;53.816;8.902;2023-08-20T12:00:36;4.40;;;1.23;;
22557;SDS011;11445;53.816;8.902;2023-08-20T12:03:03;7.13;;;1.10;;
22557;SDS011;11445;53.816;8.902;2023-08-20T12:05:30;4.97;;;1.40;;
22557;SDS011;11445;53.816;8.902;2023-08-20T12:07:57;5.97;;;1.40;;
22557;SDS011;11445;53.816;8.902;2023-08-20T12:10:27;8.05;;;1.45;;
22557;SDS011;11445;53.816;8.902;2023-08-20T12:12:55;5.88;;;1.40;;
22557;SDS011;11445;53.816;8.902;2023-08-20T12:15:22;5.85;;;1.30;;
22557;SDS011;11445;53.816;8.902;2023-08-20T12:18:00;5.68;;;1.00;;
22557;SDS011;11445;53.816;8.902;2023-08-20T12:20:29;4.53;;;1.30;;
22557;SDS011;11445;53.816;8.902;2023-08-20T12:23:01;4.75;;;1.17;;
22557;SDS011;11445;53.816;8.902;2023-08-20T12:25:31;9.05;;;1.20;;
22557;SDS011;11445;53.816;8.902;2023-08-20T12:28:00;3.38;;;1.30;;
22557;SDS011;11445;53.816;8.902;2023-08-20T12:30:28;8.23;;;1.50;;
22557;SDS011;11445;53.816;8.902;2023-08-20T12:32:55;7.90;;;1.60;;
22557;SDS011;11445;53.816;8.902;2023-08-20T12:35:22;5.18;;;1.35;;
22557;SDS011;11445;53.816;8.902;2023-08-20T12:37:48;7.63;;;1.73;;
22557;SDS011;11445;53.816;8.902;2023-08-20T12:40:15;6.97;;;1.63;;
22557;SDS011;11445;53.816;8.902;2023-08-20T12:42:44;6.68;;;1.20;;
22557;SDS011;11445;53.816;8.902;2023-08-20T12:45:11;7.55;;;1.40;;
22557;SDS011;11445;53.816;8.902;2023-08-20T12:47:38;3.63;;;1.02;;
22557;SDS011;11445;53.816;8.902;2023-08-20T12:50:06;4.97;;;1.23;;
22557;SDS011;11445;53.816;8.902;2023-08-20T12:52:33;7.25;;;1.55;;
22557;SDS011;11445;53.816;8.902;2023-08-20T12:55:00;6.00;;;1.13;;
22557;SDS011;11445;53.816;8.902;2023-08-20T12:57:27;3.13;;;0.95;;
22557;SDS011;11445;53.816;8.902;2023-08-20T12:59:56;9.00;;;2.20;;
22557;SDS011;11445;53.816;8.902;2023-08-20T13:02:23;10.50;;;2.00;;
22557;SDS011;11445;53.816;8.902;2023-08-20T13:04:50;7.65;;;2.15;;
22557;SDS011;11445;53.816;8.902;2023-08-20T13:07:18;7.10;;;2.30;;
22557;SDS011;11445;53.816;8.902;2023-08-20T13:09:45;8.82;;;2.63;;
22557;SDS011;11445;53.816;8.902;2023-08-20T13:12:12;14.13;;;3.15;;
22557;SDS011;11445;53.816;8.902;2023-08-20T13:14:40;8.85;;;2.80;;
22557;SDS011;11445;53.816;8.902;2023-08-20T13:17:09;12.70;;;2.88;;
22557;SDS011;11445;53.816;8.902;2023-08-20T13:19:36;12.05;;;2.97;;
22557;SDS011;11445;53.816;8.902;2023-08-20T13:22:03;10.35;;;2.95;;
22557;SDS011;11445;53.816;8.902;2023-08-20T13:24:31;14.55;;;2.58;;
22557;SDS011;11445;53.816;8.902;2023-08-20T13:26:58;6.70;;;2.35;;
22557;SDS011;11445;53.816;8.902;2023-08-20T13:29:25;9.63;;;2.35;;
22557;SDS011;11445;53.816;8.902;2023-08-20T13:31:51;10.57;;;2.45;;
22557;SDS011;11445;53.816;8.902;2023-08-20T13:34:20;10.45;;;2.67;;
22557;SDS011;11445;53.816;8.902;2023-08-20T13:36:46;9.77;;;2.42;;
22557;SDS011;11445;53.816;8.902;2023-08-20T13:39:13;15.57;;;2.38;;
22557;SDS011;11445;53.816;8.902;2023-08-20T13:41:40;8.65;;;2.30;;
22557;SDS011;11445;53.816;8.902;2023-08-20T13:44:07;17.75;;;2.60;;
22557;SDS011;11445;53.816;8.902;2023-08-20T13:46:35;9.13;;;3.13;;
22557;SDS011;11445;53.816;8.902;2023-08-20T13:49:02;12.27;;;3.15;;
22557;SDS011;11445;53.816;8.902;2023-08-20T13:51:30;11.52;;;2.90;;
22557;SDS011;11445;53.816;8.902;2023-08-20T13:53:57;13.55;;;3.38;;
22557;SDS011;11445;53.816;8.902;2023-08-20T13:56:24;20.10;;;3.70;;
22557;SDS011;11445;53.816;8.902;2023-08-20T13:58:51;16.25;;;3.33;;
22557;SDS011;11445;53.816;8.902;2023-08-20T14:01:18;16.88;;;2.92;;
22557;SDS011;11445;53.816;8.902;2023-08-20T14:03:45;10.95;;;3.03;;
22557;SDS011;11445;53.816;8.902;2023-08-20T14:06:12;19.25;;;4.05;;
22557;SDS011;11445;53.816;8.902;2023-08-20T14:08:40;17.73;;;5.00;;
22557;SDS011;11445;53.816;8.902;2023-08-20T14:11:07;14.70;;;4.38;;
22557;SDS011;11445;53.816;8.902;2023-08-20T14:13:33;16.33;;;3.85;;
22557;SDS011;11445;53.816;8.902;2023-08-20T14:16:01;16.98;;;4.90;;
22557;SDS011;11445;53.816;8.902;2023-08-20T14:18:28;16.80;;;3.58;;
22557;SDS011;11445;53.816;8.902;2023-08-20T14:20:55;18.00;;;3.92;;
22557;SDS011;11445;53.816;8.902;2023-08-20T14:23:23;17.95;;;3.72;;
22557;SDS011;11445;53.816;8.902;2023-08-20T14:25:51;18.40;;;3.55;;
22557;SDS011;11445;53.816;8.902;2023-08-20T14:28:19;18.58;;;3.83;;
22557;SDS011;11445;53.816;8.902;2023-08-20T14:30:46;22.52;;;4.35;;
22557;SDS011;11445;53.816;8.902;2023-08-20T14:33:14;19.02;;;3.60;;
22557;SDS011;11445;53.816;8.902;2023-08-20T14:35:41;19.02;;;5.50;;
22557;SDS011;11445;53.816;8.902;2023-08-20T14:38:07;12.40;;;3.17;;
22557;SDS011;11445;53.816;8.902;2023-08-20T14:40:36;17.17;;;3.58;;
22557;SDS011;11445;53.816;8.902;2023-08-20T14:43:06;14.20;;;3.88;;
22557;SDS011;11445;53.816;8.902;2023-08-20T14:45:32;18.67;;;3.20;;
22557;SDS011;11445;53.816;8.902;2023-08-20T14:47:59;25.30;;;4.75;;